createdAt,value
2022-08-12T00:02:15.158Z,78.14
2022-08-12T00:05:09.127Z,78.91
2022-08-12T00:08:01.848Z,79.73
2022-08-12T00:10:55.688Z,79.22
2022-08-12T00:13:52.328Z,79.36
2022-08-12T00:16:47.883Z,78.74
2022-08-12T00:19:40.463Z,78.84
2022-08-12T00:22:33.931Z,78.83
2022-08-12T00:26:00.387Z,78.96
2022-08-12T00:28:41.931Z,78.80
2022-08-12T00:31:34.697Z,78.65
2022-08-12T00:34:26.927Z,78.92
2022-08-12T00:37:27.735Z,79.03
2022-08-12T00:40:25.417Z,78.25
2022-08-12T00:43:00.399Z,78.24
2022-08-12T00:45:55.452Z,78.83
2022-08-12T00:48:29.758Z,79.14
2022-08-12T00:51:05.321Z,79.08
2022-08-12T00:53:44.216Z,77.89
2022-08-12T00:56:18.223Z,78.35
2022-08-12T00:58:54.238Z,78.84
2022-08-12T01:01:28.688Z,78.67
2022-08-12T01:04:47.872Z,78.91
2022-08-12T01:07:41.385Z,78.96
2022-08-12T01:10:34.239Z,78.85
2022-08-12T01:13:19.300Z,79.33
2022-08-12T01:16:00.381Z,79.30
2022-08-12T01:18:36.714Z,78.11
2022-08-12T01:21:17.612Z,77.89
2022-08-12T01:24:30.118Z,77.99
2022-08-12T01:27:01.866Z,78.17
2022-08-12T01:29:40.197Z,78.94
2022-08-12T01:32:15.735Z,79.58
2022-08-12T01:35:14.379Z,79.23
2022-08-12T01:38:00.489Z,78.93
2022-08-12T01:40:41.546Z,79.07
2022-08-12T01:43:22.716Z,79.26
2022-08-12T01:46:23.173Z,79.38
2022-08-12T01:49:30.804Z,79.04
2022-08-12T01:52:20.744Z,79.17
2022-08-12T01:54:59.343Z,78.89
2022-08-12T01:57:58.405Z,79.13
2022-08-12T02:01:02.433Z,79.71
2022-08-12T02:04:24.525Z,79.82
2022-08-12T02:07:30.405Z,80.17
2022-08-12T02:10:50.903Z,80.11
2022-08-12T02:13:48.847Z,80.28
2022-08-12T02:16:35.663Z,80.51
2022-08-12T02:19:38.716Z,79.83
2022-08-12T02:22:30.622Z,79.19
2022-08-12T02:25:19.326Z,79.23
2022-08-12T02:27:56.668Z,78.36
2022-08-12T02:30:33.279Z,79.21
2022-08-12T02:33:19.107Z,79.35
2022-08-12T02:35:53.448Z,79.55
2022-08-12T02:38:34.464Z,78.86
2022-08-12T02:41:12.176Z,78.29
2022-08-12T02:44:02.341Z,78.91
2022-08-12T02:46:38.305Z,79.11
2022-08-12T02:49:38.640Z,78.74
2022-08-12T02:52:13.382Z,79.43
2022-08-12T02:54:51.498Z,79.25
2022-08-12T02:57:26.363Z,79.12
2022-08-12T03:00:04.849Z,79.18
2022-08-12T03:02:40.686Z,79.69
2022-08-12T03:05:16.379Z,79.50
2022-08-12T03:07:59.061Z,79.16
2022-08-12T03:10:40.662Z,79.27
2022-08-12T03:13:21.631Z,79.15
2022-08-12T03:15:57.479Z,78.94
2022-08-12T03:18:38.500Z,78.99
2022-08-12T03:21:14.177Z,78.29
2022-08-12T03:23:48.756Z,78.22
2022-08-12T03:26:27.160Z,78.42
2022-08-12T03:29:03.405Z,78.91
2022-08-12T03:31:40.587Z,78.72
2022-08-12T03:34:14.210Z,79.15
2022-08-12T03:36:49.828Z,79.07
2022-08-12T03:39:54.194Z,78.52
2022-08-12T03:42:54.039Z,78.38
2022-08-12T03:45:53.122Z,78.72
2022-08-12T03:48:50.707Z,78.67
2022-08-12T03:51:42.483Z,78.40
2022-08-12T03:54:34.402Z,78.54
2022-08-12T03:57:25.914Z,78.57
2022-08-12T04:00:24.055Z,78.09
2022-08-12T04:03:02.761Z,77.50
2022-08-12T04:05:55.516Z,78.34
2022-08-12T04:08:33.321Z,78.39
2022-08-12T04:11:29.174Z,77.67
2022-08-12T04:14:15.052Z,78.51
2022-08-12T04:16:52.679Z,78.19
2022-08-12T04:19:27.421Z,78.42
2022-08-12T04:22:03.683Z,78.41
2022-08-12T04:24:40.943Z,78.09
2022-08-12T04:27:23.244Z,77.80
2022-08-12T04:30:16.339Z,77.38
2022-08-12T04:32:54.665Z,77.11
2022-08-12T04:35:28.551Z,78.17
2022-08-12T04:38:02.654Z,77.52
2022-08-12T04:40:40.192Z,75.93
2022-08-12T04:44:00.078Z,76.12
2022-08-12T04:46:09.296Z,77.07
2022-08-12T04:48:43.526Z,76.59
2022-08-12T04:51:18.146Z,76.77
2022-08-12T04:53:52.753Z,76.09
2022-08-12T04:56:30.047Z,75.94
2022-08-12T04:59:10.836Z,76.41
2022-08-12T05:01:44.208Z,75.03
2022-08-12T05:04:19.435Z,75.91
2022-08-12T05:06:54.618Z,76.18
2022-08-12T05:10:00.924Z,75.94
2022-08-12T05:12:24.077Z,75.93
2022-08-12T05:14:57.463Z,76.58
2022-08-12T05:17:33.409Z,75.89
2022-08-12T05:20:11.335Z,76.15
2022-08-12T05:22:46.303Z,76.68
2022-08-12T05:25:22.282Z,75.58
2022-08-12T05:27:58.438Z,76.40
2022-08-12T05:30:35.226Z,76.00
2022-08-12T05:33:10.823Z,75.53
2022-08-12T05:35:51.000Z,75.28
2022-08-12T05:38:43.350Z,75.40
2022-08-12T05:41:23.312Z,75.58
2022-08-12T05:43:58.438Z,75.25
2022-08-12T05:46:32.757Z,74.78
2022-08-12T05:49:07.452Z,75.13
2022-08-12T05:51:41.884Z,76.05
2022-08-12T05:54:16.716Z,76.27
2022-08-12T05:56:50.551Z,76.02
2022-08-12T05:59:24.671Z,75.59
2022-08-12T06:02:13.443Z,75.58
2022-08-12T06:04:48.689Z,74.24
2022-08-12T06:07:37.284Z,74.80
2022-08-12T06:10:18.512Z,73.77
2022-08-12T06:13:09.902Z,74.65
2022-08-12T06:15:44.164Z,74.72
2022-08-12T06:18:19.642Z,74.50
2022-08-12T06:21:02.056Z,73.93
2022-08-12T06:23:39.258Z,74.30
2022-08-12T06:26:21.470Z,73.91
2022-08-12T06:28:57.331Z,73.46
2022-08-12T06:31:32.234Z,73.81
2022-08-12T06:35:26.966Z,73.43
2022-08-12T06:37:05.069Z,72.55
2022-08-12T06:39:38.860Z,72.41
2022-08-12T06:42:42.079Z,72.07
2022-08-12T06:45:19.023Z,73.05
2022-08-12T06:47:54.287Z,72.41
2022-08-12T06:50:28.781Z,70.89
2022-08-12T06:53:06.125Z,72.13
2022-08-12T06:55:57.943Z,72.38
2022-08-12T06:58:40.434Z,72.31
2022-08-12T07:01:15.618Z,71.98
2022-08-12T07:03:52.552Z,71.75
2022-08-12T07:06:27.871Z,71.58
2022-08-12T07:09:01.795Z,71.15
2022-08-12T07:11:36.324Z,69.36
2022-08-12T07:14:13.101Z,69.81
2022-08-12T07:17:04.266Z,70.40
2022-08-12T07:19:45.116Z,70.32
2022-08-12T07:22:24.827Z,68.26
2022-08-12T07:25:17.531Z,69.50
2022-08-12T07:27:58.437Z,69.12
2022-08-12T07:30:34.238Z,67.70
2022-08-12T07:33:10.658Z,70.36
2022-08-12T07:35:48.602Z,69.52
2022-08-12T07:38:34.510Z,69.15
2022-08-12T07:41:34.800Z,70.25
2022-08-12T07:44:10.661Z,70.29
2022-08-12T07:46:45.398Z,69.78
2022-08-12T07:49:20.286Z,71.19
2022-08-12T07:52:01.454Z,70.56
2022-08-12T07:54:36.939Z,69.73
2022-08-12T07:57:14.981Z,69.80
2022-08-12T07:59:49.686Z,68.32
2022-08-12T08:02:30.254Z,70.05
2022-08-12T08:05:06.775Z,69.21
2022-08-12T08:07:44.488Z,67.07
2022-08-12T08:10:22.310Z,68.01
2022-08-12T08:13:00.563Z,67.38
2022-08-12T08:16:01.819Z,65.94
2022-08-12T08:18:35.707Z,66.13
2022-08-12T08:21:09.803Z,64.60
2022-08-12T08:24:05.081Z,63.29
2022-08-12T08:26:39.024Z,64.66
2022-08-12T08:29:13.630Z,64.14
2022-08-12T08:31:53.136Z,62.06
2022-08-12T08:34:49.225Z,62.15
2022-08-12T08:37:23.964Z,62.40
2022-08-12T08:40:18.780Z,58.44
2022-08-12T08:42:52.172Z,60.34
2022-08-12T08:45:26.137Z,61.70
2022-08-12T08:48:01.308Z,60.88
2022-08-12T08:50:34.746Z,61.08
2022-08-12T08:53:09.494Z,58.20
2022-08-12T08:56:04.188Z,59.34
2022-08-12T08:58:39.792Z,60.28
2022-08-12T09:01:20.105Z,59.01
2022-08-12T09:05:09.196Z,59.99
2022-08-12T09:10:02.345Z,58.32
2022-08-12T09:13:00.928Z,57.02
2022-08-12T09:15:37.369Z,58.66
2022-08-12T09:18:12.789Z,57.89
2022-08-12T09:20:51.503Z,57.14
2022-08-12T09:23:59.576Z,58.25
2022-08-12T09:26:28.428Z,57.59
2022-08-12T09:29:02.781Z,57.40
2022-08-12T09:32:06.296Z,56.20
2022-08-12T09:34:50.876Z,57.82
2022-08-12T09:37:27.114Z,56.26
2022-08-12T09:40:57.045Z,57.16
2022-08-12T09:43:18.023Z,56.76
2022-08-12T09:46:20.220Z,57.38
2022-08-12T09:48:56.212Z,58.50
2022-08-12T09:51:43.693Z,58.41
2022-08-12T09:54:33.150Z,58.69
2022-08-12T09:58:07.541Z,58.32
2022-08-12T10:00:19.792Z,57.11
2022-08-12T10:03:32.210Z,56.43
2022-08-12T10:06:20.127Z,58.66
2022-08-12T10:09:03.480Z,57.92
2022-08-12T10:12:11.393Z,55.48
2022-08-12T10:14:49.830Z,56.56
2022-08-12T10:17:26.485Z,58.39
2022-08-12T10:20:01.484Z,57.69
2022-08-12T10:22:40.926Z,55.33
2022-08-12T10:26:35.169Z,57.71
2022-08-12T10:28:50.620Z,58.48
2022-08-12T10:32:01.684Z,56.74
2022-08-12T10:34:36.035Z,57.85
2022-08-12T10:37:22.976Z,57.14
2022-08-12T10:40:11.373Z,55.58
2022-08-12T10:43:06.510Z,57.80
2022-08-12T10:45:42.820Z,56.19
2022-08-12T10:48:33.529Z,56.45
2022-08-12T10:51:51.376Z,55.55
2022-08-12T10:54:14.399Z,55.65
2022-08-12T10:56:50.376Z,57.25
2022-08-12T10:59:32.129Z,56.51
2022-08-12T11:04:19.323Z,57.81
2022-08-12T11:07:02.628Z,57.45
2022-08-12T11:08:34.369Z,58.29
2022-08-12T11:12:07.794Z,58.93
2022-08-12T11:14:49.897Z,57.39
2022-08-12T11:17:43.711Z,57.37
2022-08-12T11:20:14.939Z,57.15
2022-08-12T11:22:59.947Z,55.61
2022-08-12T11:25:57.627Z,57.61
2022-08-12T11:28:37.563Z,57.21
2022-08-12T11:31:14.486Z,57.95
2022-08-12T11:34:06.191Z,56.08
2022-08-12T11:36:57.200Z,57.61
2022-08-12T11:42:32.267Z,55.87
2022-08-12T11:45:10.909Z,57.11
2022-08-12T11:47:45.271Z,55.07
2022-08-12T11:50:21.040Z,52.85
2022-08-12T11:53:57.032Z,54.68
2022-08-12T11:56:06.687Z,53.13
2022-08-12T12:02:01.268Z,56.43
2022-08-12T12:04:31.300Z,55.30
2022-08-12T12:07:06.694Z,55.13
2022-08-12T12:09:51.984Z,55.69
2022-08-12T12:12:29.197Z,57.85
2022-08-12T12:15:06.722Z,56.51
2022-08-12T12:17:42.166Z,56.16
2022-08-12T12:20:16.811Z,57.20
2022-08-12T12:22:51.974Z,55.43
2022-08-12T12:25:59.525Z,56.68
2022-08-12T12:28:37.642Z,55.08
2022-08-12T12:31:14.777Z,55.64
2022-08-12T12:34:09.525Z,56.37
2022-08-12T12:36:43.336Z,56.57
2022-08-12T12:39:17.791Z,56.66
2022-08-12T12:42:42.745Z,57.32
2022-08-12T12:44:53.472Z,54.21
2022-08-12T12:47:29.888Z,54.55
2022-08-12T12:50:06.191Z,55.72
2022-08-12T12:52:39.962Z,58.08
2022-08-12T12:55:16.731Z,57.25
2022-08-12T12:58:00.780Z,55.99
2022-08-12T13:00:36.892Z,57.32
2022-08-12T13:03:18.910Z,57.09
2022-08-12T13:06:02.362Z,57.48
2022-08-12T13:08:36.601Z,57.24
2022-08-12T13:11:11.943Z,57.86
2022-08-12T13:14:07.790Z,55.75
2022-08-12T13:16:45.792Z,57.33
2022-08-12T13:19:25.118Z,58.29
2022-08-12T13:22:21.072Z,58.58
2022-08-12T13:24:57.470Z,57.72
2022-08-12T13:27:41.962Z,57.78
2022-08-12T13:30:26.705Z,57.68
2022-08-12T13:33:03.719Z,58.67
2022-08-12T13:36:05.046Z,57.37
2022-08-12T13:38:52.307Z,58.13
2022-08-12T13:41:36.375Z,58.96
2022-08-12T13:44:13.480Z,59.55
2022-08-12T13:46:58.097Z,56.82
2022-08-12T13:49:55.269Z,57.29
2022-08-12T13:52:32.364Z,56.68
2022-08-12T13:55:06.342Z,56.27
2022-08-12T13:57:44.530Z,55.87
2022-08-12T14:00:24.061Z,56.27
2022-08-12T14:03:15.058Z,57.38
2022-08-12T14:05:48.419Z,57.90
2022-08-12T14:08:23.984Z,57.40
2022-08-12T14:10:58.731Z,56.63
2022-08-12T14:14:04.631Z,55.03
2022-08-12T14:16:37.368Z,55.29
2022-08-12T14:19:27.082Z,55.90
2022-08-12T14:22:11.237Z,55.27
2022-08-12T14:24:44.805Z,55.09
2022-08-12T14:28:02.705Z,54.71
2022-08-12T14:30:17.211Z,53.52
2022-08-12T14:33:09.113Z,53.87
2022-08-12T14:35:48.693Z,56.46
2022-08-12T14:38:29.690Z,57.17
2022-08-12T14:41:07.447Z,55.96
2022-08-12T14:43:44.153Z,53.38
2022-08-12T14:46:21.606Z,53.97
2022-08-12T14:48:57.355Z,53.50
2022-08-12T14:52:38.700Z,52.72
2022-08-12T14:57:24.462Z,55.21
2022-08-12T15:00:29.390Z,55.16
2022-08-12T15:03:06.449Z,55.77
2022-08-12T15:06:05.897Z,55.34
2022-08-12T15:08:40.785Z,56.66
2022-08-12T15:11:21.666Z,56.76
2022-08-12T15:13:56.402Z,57.59
2022-08-12T15:17:03.539Z,57.30
2022-08-12T15:20:31.858Z,57.96
2022-08-12T15:22:37.872Z,58.72
2022-08-12T15:25:30.491Z,58.94
2022-08-12T15:28:21.189Z,57.51
2022-08-12T15:30:55.861Z,57.37
2022-08-12T15:33:44.793Z,57.41
2022-08-12T15:36:36.585Z,58.92
2022-08-12T15:39:17.832Z,59.29
2022-08-12T15:41:55.443Z,58.54
2022-08-12T15:44:38.968Z,59.53
2022-08-12T15:47:17.759Z,60.49
2022-08-12T15:50:02.430Z,60.37
2022-08-12T15:52:39.965Z,60.54
2022-08-12T15:55:16.828Z,61.95
2022-08-12T15:57:58.180Z,61.95
2022-08-12T16:00:36.275Z,60.77
2022-08-12T16:03:13.550Z,62.84
2022-08-12T16:06:12.414Z,63.49
2022-08-12T16:08:49.395Z,62.54
2022-08-12T16:11:23.289Z,62.97
2022-08-12T16:14:00.039Z,62.90
2022-08-12T16:16:37.156Z,63.84
2022-08-12T16:20:04.309Z,63.38
2022-08-12T16:22:15.234Z,63.52
2022-08-12T16:24:50.740Z,63.69
2022-08-12T16:27:38.877Z,63.34
2022-08-12T16:30:16.377Z,63.51
2022-08-12T16:32:52.840Z,64.58
2022-08-12T16:35:30.681Z,64.64
2022-08-12T16:38:26.034Z,65.48
2022-08-12T16:41:07.737Z,64.85
2022-08-12T16:43:47.239Z,65.62
2022-08-12T16:46:32.806Z,65.83
2022-08-12T16:49:13.494Z,66.58
2022-08-12T16:51:52.149Z,66.39
2022-08-12T16:54:36.353Z,66.93
2022-08-12T16:57:14.775Z,67.42
2022-08-12T16:59:57.998Z,68.23
2022-08-12T17:02:33.979Z,67.47
2022-08-12T17:05:19.672Z,67.67
2022-08-12T17:07:56.355Z,68.75
2022-08-12T17:11:08.380Z,68.58
2022-08-12T17:13:53.117Z,69.58
2022-08-12T17:16:29.905Z,68.94
2022-08-12T17:19:14.842Z,69.00
2022-08-12T17:22:01.616Z,69.11
2022-08-12T17:24:43.931Z,69.83
2022-08-12T17:27:40.835Z,69.59
2022-08-12T17:30:17.278Z,69.62
2022-08-12T17:33:02.116Z,69.80
2022-08-12T17:35:43.387Z,69.90
2022-08-12T17:38:26.420Z,71.13
2022-08-12T17:41:22.601Z,71.17
2022-08-12T17:43:58.732Z,71.31
2022-08-12T17:46:33.730Z,71.53
2022-08-12T17:49:19.255Z,71.71
2022-08-12T17:52:12.032Z,71.89
2022-08-12T17:54:47.496Z,71.88
2022-08-12T17:57:30.475Z,72.27
2022-08-12T18:00:10.592Z,72.33
2022-08-12T18:02:50.047Z,72.27
2022-08-12T18:05:25.071Z,72.19
2022-08-12T18:08:21.505Z,72.76
2022-08-12T18:12:03.842Z,72.99
2022-08-12T18:14:22.468Z,73.60
2022-08-12T18:17:03.344Z,73.90
2022-08-12T18:20:40.480Z,74.08
2022-08-12T18:23:24.291Z,73.32
2022-08-12T18:26:18.662Z,73.32
2022-08-12T18:28:57.499Z,73.88
2022-08-12T18:31:44.505Z,74.41
2022-08-12T18:34:33.110Z,74.40
2022-08-12T18:37:11.030Z,74.35
2022-08-12T18:40:22.140Z,74.69
2022-08-12T18:42:59.378Z,74.56
2022-08-12T18:45:47.302Z,74.81
2022-08-12T18:48:32.326Z,74.44
2022-08-12T18:51:21.968Z,75.77
2022-08-12T18:54:09.531Z,76.34
2022-08-12T18:56:43.627Z,76.37
2022-08-12T19:00:02.409Z,76.82
2022-08-12T19:02:23.213Z,76.67
2022-08-12T19:04:58.742Z,76.74
2022-08-12T19:08:01.263Z,76.71
2022-08-12T19:10:39.970Z,76.99
2022-08-12T19:13:33.729Z,77.26
2022-08-12T19:16:11.479Z,77.15
2022-08-12T19:18:48.100Z,77.37
2022-08-12T19:21:21.955Z,76.71
2022-08-12T19:24:14.847Z,77.22
2022-08-12T19:26:57.385Z,78.32
2022-08-12T19:29:39.583Z,78.29
2022-08-12T19:32:27.058Z,78.18
2022-08-12T19:38:06.997Z,78.19
2022-08-12T19:40:42.986Z,77.92
2022-08-12T19:43:22.397Z,78.24
2022-08-12T19:48:58.751Z,79.11
2022-08-12T19:51:39.954Z,78.61
2022-08-12T19:54:13.441Z,78.58
2022-08-12T19:56:51.856Z,78.96
2022-08-12T19:59:42.915Z,78.19
2022-08-12T20:02:34.580Z,79.05
2022-08-12T20:06:03.247Z,78.92
2022-08-12T20:08:07.113Z,78.65
2022-08-12T20:10:53.463Z,78.45
2022-08-12T20:13:37.571Z,78.70
2022-08-12T20:16:32.365Z,78.81
2022-08-12T20:19:14.896Z,78.94
2022-08-12T20:22:02.108Z,79.20
2022-08-12T20:24:43.282Z,79.37
2022-08-12T20:27:29.081Z,79.12
2022-08-12T20:30:18.334Z,78.81
2022-08-12T20:33:04.320Z,79.06
2022-08-12T20:36:05.962Z,79.26
2022-08-12T20:38:34.688Z,79.64
2022-08-12T20:41:17.738Z,79.31
2022-08-12T20:43:59.266Z,79.43
2022-08-12T20:46:33.979Z,79.73
2022-08-12T20:49:17.085Z,80.03
2022-08-12T20:51:56.324Z,80.80
2022-08-12T20:54:38.971Z,80.68
2022-08-12T20:57:14.529Z,80.76
2022-08-12T20:59:53.347Z,80.90
2022-08-12T21:02:30.607Z,81.16
2022-08-12T21:05:22.764Z,81.15
2022-08-12T21:08:14.084Z,81.08
2022-08-12T21:10:51.325Z,81.37
2022-08-12T21:13:27.347Z,81.18
2022-08-12T21:16:10.256Z,81.28
2022-08-12T21:18:50.533Z,81.21
2022-08-12T21:21:49.760Z,81.55
2022-08-12T21:24:21.435Z,81.91
2022-08-12T21:27:07.963Z,82.32
2022-08-12T21:29:59.164Z,82.60
2022-08-12T21:32:41.885Z,83.02
2022-08-12T21:35:44.177Z,82.65
2022-08-12T21:38:19.458Z,82.76
2022-08-12T21:40:56.018Z,82.62
2022-08-12T21:43:38.955Z,82.73
2022-08-12T21:46:35.275Z,82.60
2022-08-12T21:49:17.382Z,82.68
2022-08-12T21:52:15.110Z,82.03
2022-08-12T21:54:56.519Z,81.90
2022-08-12T21:57:36.520Z,82.06
2022-08-12T22:00:31.880Z,81.92
2022-08-12T22:04:07.813Z,82.15
2022-08-12T22:06:43.826Z,82.05
2022-08-12T22:09:47.618Z,81.98
2022-08-12T22:12:35.389Z,81.98
2022-08-12T22:15:22.053Z,81.81
2022-08-12T22:18:24.086Z,82.08
2022-08-12T22:21:00.132Z,82.43
2022-08-12T22:23:51.574Z,82.27
2022-08-12T22:26:42.733Z,82.30
2022-08-12T22:29:34.047Z,82.12
2022-08-12T22:32:21.822Z,82.12
2022-08-12T22:35:22.172Z,82.25
2022-08-12T22:38:11.100Z,82.19
2022-08-12T22:41:04.885Z,82.17
2022-08-12T22:44:00.551Z,82.16
2022-08-12T22:46:54.249Z,82.82
2022-08-12T22:50:07.914Z,82.81
2022-08-12T22:52:50.740Z,83.03
2022-08-12T22:55:58.930Z,82.92
2022-08-12T22:58:32.126Z,82.79
2022-08-12T23:01:06.285Z,82.81
2022-08-12T23:03:47.721Z,82.65
2022-08-12T23:06:27.597Z,82.57
2022-08-12T23:09:09.152Z,82.29
2022-08-12T23:11:43.711Z,82.54
2022-08-12T23:14:17.381Z,82.21
2022-08-12T23:16:52.483Z,82.45
2022-08-12T23:19:38.213Z,82.40
2022-08-12T23:22:35.676Z,82.37
2022-08-12T23:25:20.958Z,81.91
2022-08-12T23:28:30.143Z,82.71
2022-08-12T23:31:13.407Z,82.68
2022-08-12T23:34:31.754Z,82.71
2022-08-12T23:37:14.763Z,82.67
2022-08-12T23:40:14.648Z,82.60
2022-08-12T23:42:47.015Z,82.66
2022-08-12T23:45:31.551Z,82.70
2022-08-12T23:48:22.850Z,82.87
2022-08-12T23:51:23.286Z,83.12
2022-08-12T23:54:07.683Z,82.97
2022-08-12T23:56:43.690Z,83.43
2022-08-12T23:59:22.912Z,83.17
